Time;durP1;ratioP1;P1;durP2;ratioP2;P2;SDS_P1;SDS_P2;PMS_P1;PMS_P2;Temp;Humidity;BMP_temperature;BMP_pressure;BME280_temperature;BME280_humidity;BME280_pressure;Samples;Min_cycle;Max_cycle;Signal;HPM_P1;HPM_P2
2022/04/07 00:01:59;;;;;;;3.53;2.30;;;19.50;53.80;;;;;;4848179;29;20455;-60
2022/04/07 00:04:31;;;;;;;4.90;1.97;;;19.50;53.80;;;;;;4847320;29;20504;-59
2022/04/07 00:07:02;;;;;;;2.93;1.77;;;19.40;54.40;;;;;;4846035;29;20464;-60
2022/04/07 00:09:34;;;;;;;2.30;1.87;;;19.40;54.80;;;;;;4845884;29;20459;-60
2022/04/07 00:12:05;;;;;;;1.90;1.60;;;19.50;53.70;;;;;;4849230;29;20838;-60
2022/04/07 00:14:38;;;;;;;3.53;1.80;;;19.20;53.30;;;;;;4852314;29;20451;-59
2022/04/07 00:17:10;;;;;;;3.63;2.10;;;19.20;54.40;;;;;;4845605;29;20518;-60
2022/04/07 00:19:42;;;;;;;2.27;1.60;;;19.20;54.50;;;;;;4842528;29;20482;-60
2022/04/07 00:22:12;;;;;;;4.53;2.10;;;19.20;54.50;;;;;;4844624;29;20463;-60
2022/04/07 00:24:43;;;;;;;2.60;1.80;;;19.00;54.20;;;;;;4843929;29;20425;-61
2022/04/07 00:27:14;;;;;;;4.53;1.60;;;19.00;54.20;;;;;;4849931;29;20460;-60
2022/04/07 00:29:45;;;;;;;2.67;1.90;;;18.90;55.70;;;;;;4852963;29;20433;-60
2022/04/07 00:32:17;;;;;;;2.70;1.40;;;18.90;54.90;;;;;;4852352;29;20462;-60
2022/04/07 00:34:54;;;;;;;3.73;1.70;;;18.80;54.50;;;;;;4851159;29;20431;-60
2022/04/07 00:37:25;;;;;;;4.10;1.57;;;18.70;54.50;;;;;;4851319;29;20468;-60
2022/04/07 00:39:56;;;;;;;3.40;1.90;;;18.70;54.70;;;;;;4851916;29;20567;-61
2022/04/07 00:42:27;;;;;;;2.30;1.73;;;18.70;54.80;;;;;;4850139;29;20441;-60
2022/04/07 00:44:58;;;;;;;1.67;1.40;;;18.80;54.10;;;;;;4850235;29;20456;-60
2022/04/07 00:47:30;;;;;;;3.40;2.10;;;18.70;54.30;;;;;;4841911;29;22220;-60
2022/04/07 00:50:01;;;;;;;1.70;1.60;;;18.70;53.90;;;;;;4847194;29;20446;-60
2022/04/07 00:52:34;;;;;;;2.53;1.80;;;18.60;56.00;;;;;;4844394;29;20544;-59
2022/04/07 00:55:06;;;;;;;4.50;1.73;;;18.70;55.10;;;;;;4845711;29;20441;-60
2022/04/07 00:57:38;;;;;;;3.27;2.00;;;18.70;54.90;;;;;;4850737;29;20497;-60
2022/04/07 01:00:11;;;;;;;3.70;1.70;;;18.60;55.00;;;;;;4852627;29;20433;-61
2022/04/07 01:02:43;;;;;;;1.90;1.40;;;18.60;54.50;;;;;;4846909;29;21185;-59
2022/04/07 01:05:14;;;;;;;2.33;1.67;;;18.60;55.50;;;;;;4845474;29;20452;-60
2022/04/07 01:07:46;;;;;;;1.77;1.63;;;18.60;55.10;;;;;;4849140;29;20481;-61
2022/04/07 01:10:17;;;;;;;2.37;1.80;;;18.60;55.10;;;;;;4847475;29;20474;-63
2022/04/07 01:12:48;;;;;;;1.60;1.50;;;18.50;54.60;;;;;;4850415;29;20445;-63
2022/04/07 01:15:19;;;;;;;2.67;2.20;;;18.30;55.10;;;;;;4846122;29;20530;-65
2022/04/07 01:17:51;;;;;;;2.60;1.90;;;18.30;55.00;;;;;;4845339;29;20502;-65
2022/04/07 01:20:22;;;;;;;5.70;1.90;;;18.20;55.60;;;;;;4843968;29;20454;-63
2022/04/07 01:22:54;;;;;;;2.50;1.57;;;18.10;54.80;;;;;;4840760;29;20785;-65
2022/04/07 01:25:27;;;;;;;4.00;1.70;;;18.00;55.60;;;;;;4851067;29;20468;-64
2022/04/07 01:27:58;;;;;;;4.30;1.73;;;17.90;56.70;;;;;;4844480;29;20466;-65
2022/04/07 01:30:29;;;;;;;2.07;1.87;;;17.90;55.50;;;;;;4844414;29;20456;-67
2022/04/07 01:33:01;;;;;;;2.73;1.63;;;17.70;56.40;;;;;;4844322;29;20454;-66
2022/04/07 01:35:32;;;;;;;3.23;1.57;;;17.80;56.20;;;;;;4844584;29;20418;-61
2022/04/07 01:38:07;;;;;;;2.00;1.80;;;17.70;55.10;;;;;;4843335;29;20957;-60
2022/04/07 01:40:39;;;;;;;4.70;2.10;;;17.60;55.80;;;;;;4843597;29;20538;-61
2022/04/07 01:43:11;;;;;;;2.93;1.73;;;17.50;55.60;;;;;;4842354;29;20469;-61
2022/04/07 01:45:43;;;;;;;2.23;1.80;;;17.40;57.20;;;;;;4842460;29;20984;-60
2022/04/07 01:48:14;;;;;;;2.50;1.43;;;17.40;56.90;;;;;;4843207;29;20452;-60
2022/04/07 01:50:46;;;;;;;3.50;1.90;;;17.30;56.30;;;;;;4843220;29;20421;-60
2022/04/07 01:53:17;;;;;;;2.13;1.77;;;17.20;57.30;;;;;;4843391;29;20469;-60
2022/04/07 01:55:50;;;;;;;4.10;1.97;;;17.10;55.70;;;;;;4844771;29;20468;-60
2022/04/07 01:58:21;;;;;;;4.30;1.90;;;17.00;57.00;;;;;;4840778;29;20491;-60
2022/04/07 02:00:54;;;;;;;1.90;1.60;;;16.90;57.40;;;;;;4846029;29;20497;-60
2022/04/07 02:03:25;;;;;;;2.83;1.70;;;16.80;56.40;;;;;;4840944;29;20586;-60
2022/04/07 02:05:56;;;;;;;3.77;2.30;;;16.80;57.30;;;;;;4843633;29;20437;-59
2022/04/07 02:08:27;;;;;;;3.20;2.33;;;16.60;58.10;;;;;;4842194;29;20504;-60
2022/04/07 02:10:59;;;;;;;2.73;1.70;;;16.60;57.50;;;;;;4842283;29;20490;-60
2022/04/07 02:13:32;;;;;;;1.80;1.60;;;16.60;57.10;;;;;;4843218;29;20442;-60
2022/04/07 02:16:04;;;;;;;3.00;1.50;;;16.50;57.70;;;;;;4844667;29;20454;-61
2022/04/07 02:18:35;;;;;;;2.20;1.90;;;16.40;56.60;;;;;;4843224;29;20527;-60
2022/04/07 02:21:07;;;;;;;2.10;1.20;;;16.30;57.70;;;;;;4843225;29;20451;-60
2022/04/07 02:23:42;;;;;;;2.93;2.00;;;16.10;57.50;;;;;;4843730;29;20447;-60
2022/04/07 02:26:16;;;;;;;3.43;1.40;;;16.10;59.60;;;;;;4841940;29;20462;-59
2022/04/07 02:28:47;;;;;;;2.57;2.13;;;16.10;58.30;;;;;;4842893;29;20462;-60
2022/04/07 02:31:18;;;;;;;2.10;1.90;;;15.90;58.60;;;;;;4843383;29;20441;-59
2022/04/07 02:33:48;;;;;;;7.03;4.87;;;15.90;58.60;;;;;;4843142;29;20508;-59
2022/04/07 02:36:19;;;;;;;14.57;12.87;;;15.80;59.40;;;;;;4843203;29;20432;-60
2022/04/07 02:38:50;;;;;;;9.27;8.50;;;15.70;58.80;;;;;;4842931;29;20515;-60
2022/04/07 02:41:22;;;;;;;6.20;5.70;;;15.60;58.70;;;;;;4842848;29;20482;-59
2022/04/07 02:43:55;;;;;;;14.30;12.97;;;15.50;58.10;;;;;;4846554;29;20452;-59
2022/04/07 02:46:26;;;;;;;35.20;31.63;;;15.40;58.20;;;;;;4844903;29;20474;-60
2022/04/07 02:48:57;;;;;;;3.83;3.13;;;15.30;58.80;;;;;;4845061;29;20550;-60
2022/04/07 02:51:28;;;;;;;4.07;2.50;;;15.20;59.20;;;;;;4847563;29;20447;-60
2022/04/07 02:53:59;;;;;;;4.70;1.70;;;15.20;58.70;;;;;;4846619;29;20462;-60
2022/04/07 02:56:31;;;;;;;3.00;1.73;;;15.10;58.20;;;;;;4843350;29;20466;-60
2022/04/07 02:59:02;;;;;;;3.40;1.90;;;15.00;59.40;;;;;;4835206;29;20566;-61
2022/04/07 03:01:33;;;;;;;2.10;1.77;;;15.00;59.60;;;;;;4839072;29;20465;-60
2022/04/07 03:04:04;;;;;;;3.57;1.90;;;14.90;59.70;;;;;;4848188;29;20469;-60
2022/04/07 03:06:34;;;;;;;4.40;2.23;;;14.80;61.00;;;;;;4845976;29;20494;-59
2022/04/07 03:09:06;;;;;;;2.83;1.53;;;14.70;59.40;;;;;;4848147;29;20454;-59
2022/04/07 03:11:38;;;;;;;3.63;2.03;;;14.70;60.20;;;;;;4849333;29;20553;-60
2022/04/07 03:14:09;;;;;;;2.80;1.90;;;14.60;58.90;;;;;;4847922;29;20466;-60
2022/04/07 03:16:48;;;;;;;2.70;1.70;;;14.60;59.30;;;;;;4848424;29;20478;-59
2022/04/07 03:19:19;;;;;;;4.87;1.87;;;14.60;60.00;;;;;;4840005;29;20646;-60
2022/04/07 03:21:50;;;;;;;5.00;1.80;;;14.50;59.00;;;;;;4848461;29;20466;-59
2022/04/07 03:24:21;;;;;;;1.77;1.30;;;14.50;59.20;;;;;;4834810;29;20469;-60
2022/04/07 03:27:09;;;;;;;3.63;1.80;;;14.60;58.10;;;;;;4843242;29;20473;-60
2022/04/07 03:29:40;;;;;;;4.00;1.90;;;14.50;59.60;;;;;;4832935;29;20441;-61
2022/04/07 03:32:11;;;;;;;2.93;1.93;;;14.50;58.80;;;;;;4836642;29;20463;-60
2022/04/07 03:34:42;;;;;;;3.70;1.50;;;14.40;58.50;;;;;;4841689;29;20459;-60
2022/04/07 03:37:14;;;;;;;2.03;1.70;;;14.40;59.10;;;;;;4840190;29;20462;-60
2022/04/07 03:39:46;;;;;;;2.77;1.33;;;14.40;58.30;;;;;;4840363;29;20509;-60
2022/04/07 03:42:19;;;;;;;3.53;1.40;;;14.30;59.10;;;;;;4846132;29;20518;-59
2022/04/07 03:44:50;;;;;;;2.23;1.40;;;14.30;58.90;;;;;;4843153;29;20498;-63
2022/04/07 03:47:21;;;;;;;3.70;1.70;;;14.20;58.70;;;;;;4842037;29;20476;-62
2022/04/07 03:49:54;;;;;;;1.97;1.43;;;14.20;58.70;;;;;;4841021;29;20915;-63
2022/04/07 03:52:27;;;;;;;2.60;1.37;;;14.20;58.90;;;;;;4850069;29;20450;-65
2022/04/07 03:54:58;;;;;;;3.63;1.40;;;14.20;58.50;;;;;;4844590;29;20749;-63
2022/04/07 03:57:31;;;;;;;3.33;1.83;;;14.20;58.50;;;;;;4845333;29;20473;-65
2022/04/07 04:00:02;;;;;;;2.03;1.47;;;14.20;58.70;;;;;;4844982;29;20674;-62
2022/04/07 04:02:33;;;;;;;2.63;1.10;;;14.10;59.00;;;;;;4846460;29;20462;-62
2022/04/07 04:05:04;;;;;;;2.07;1.13;;;14.10;59.10;;;;;;4846086;29;20466;-62
2022/04/07 04:07:35;;;;;;;2.33;1.33;;;14.10;59.00;;;;;;4845514;29;20900;-62
2022/04/07 04:10:09;;;;;;;3.60;1.60;;;14.00;59.70;;;;;;4851051;29;20466;-62
2022/04/07 04:12:42;;;;;;;3.63;1.50;;;14.00;59.40;;;;;;4845484;29;20496;-59
2022/04/07 04:15:13;;;;;;;3.97;1.17;;;13.90;59.30;;;;;;4846235;29;20454;-59
2022/04/07 04:17:44;;;;;;;2.70;1.33;;;13.90;59.80;;;;;;4846864;29;20450;-59
2022/04/07 04:20:15;;;;;;;2.30;1.80;;;13.90;60.30;;;;;;4846180;29;20490;-60
2022/04/07 04:22:46;;;;;;;2.37;1.60;;;13.80;60.40;;;;;;4844797;29;20459;-59
2022/04/07 04:25:17;;;;;;;1.83;1.23;;;13.80;61.10;;;;;;4844580;29;20487;-59
2022/04/07 04:27:49;;;;;;;3.03;1.30;;;13.70;60.20;;;;;;4847308;29;20465;-59
2022/04/07 04:30:20;;;;;;;1.60;1.33;;;13.80;60.60;;;;;;4846556;29;20555;-59
2022/04/07 04:32:51;;;;;;;2.27;1.03;;;13.70;60.00;;;;;;4846187;29;20494;-59
2022/04/07 04:35:23;;;;;;;2.60;1.20;;;13.70;60.20;;;;;;4846801;29;20457;-59
2022/04/07 04:37:54;;;;;;;3.07;1.33;;;13.70;60.00;;;;;;4846519;29;20459;-59
2022/04/07 04:40:27;;;;;;;2.23;1.20;;;13.70;59.60;;;;;;4845561;29;20887;-59
2022/04/07 04:43:00;;;;;;;1.00;0.93;;;13.70;59.40;;;;;;4845570;29;20464;-59
2022/04/07 04:45:31;;;;;;;3.60;1.37;;;13.60;59.90;;;;;;4845458;29;20470;-60
2022/04/07 04:48:02;;;;;;;1.70;1.27;;;13.60;60.40;;;;;;4845375;29;20470;-59
2022/04/07 04:50:32;;;;;;;2.00;1.17;;;13.60;60.50;;;;;;4845369;29;20469;-60
2022/04/07 04:53:03;;;;;;;3.90;1.30;;;13.60;60.00;;;;;;4847686;29;20534;-60
2022/04/07 04:55:34;;;;;;;3.13;1.10;;;13.60;59.00;;;;;;4845314;29;20833;-63
2022/04/07 04:58:07;;;;;;;2.63;1.50;;;13.60;59.00;;;;;;4851134;29;20465;-59
2022/04/07 05:00:41;;;;;;;1.40;1.17;;;13.60;58.90;;;;;;4842728;29;20518;-59
2022/04/07 05:03:13;;;;;;;2.00;1.43;;;13.60;58.60;;;;;;4841715;29;20462;-59
2022/04/07 05:06:00;;;;;;;1.50;1.20;;;13.60;58.20;;;;;;4841778;29;20483;-59
2022/04/07 05:08:31;;;;;;;1.30;1.20;;;13.70;58.10;;;;;;4841731;29;20463;-59
2022/04/07 05:11:02;;;;;;;2.87;1.23;;;13.70;57.90;;;;;;4845417;29;20609;-59
2022/04/07 05:13:34;;;;;;;1.63;1.40;;;13.60;58.70;;;;;;4845961;29;20470;-59
2022/04/07 05:16:15;;;;;;;1.50;1.30;;;13.60;57.40;;;;;;4841249;29;20463;-60
2022/04/07 05:18:48;;;;;;;1.10;1.00;;;13.60;59.20;;;;;;4845930;29;20464;-59
2022/04/07 05:21:31;;;;;;;2.17;1.30;;;13.60;58.10;;;;;;4836825;29;20458;-59
2022/04/07 05:24:04;;;;;;;2.60;1.30;;;13.50;59.00;;;;;;4844631;29;20451;-60
2022/04/07 05:26:48;;;;;;;1.67;1.57;;;13.50;58.10;;;;;;4848311;29;20442;-59
2022/04/07 05:29:21;;;;;;;1.90;1.30;;;13.40;58.60;;;;;;4848998;29;20544;-59
2022/04/07 05:31:51;;;;;;;3.33;1.20;;;13.40;58.50;;;;;;4839209;29;20467;-60
2022/04/07 05:34:22;;;;;;;0.97;0.87;;;13.40;57.30;;;;;;4843112;29;20459;-59
2022/04/07 05:36:53;;;;;;;1.70;1.13;;;13.40;56.90;;;;;;4846738;29;20466;-59
2022/04/07 05:39:24;;;;;;;1.10;1.00;;;13.40;57.50;;;;;;4845834;29;20494;-60
2022/04/07 05:41:55;;;;;;;2.40;1.30;;;13.30;58.20;;;;;;4850678;29;20450;-60
2022/04/07 05:44:31;;;;;;;4.03;1.33;;;13.20;58.30;;;;;;4847140;29;20454;-59
2022/04/07 05:47:10;;;;;;;2.50;1.17;;;13.30;56.80;;;;;;4846992;29;20589;-61
2022/04/07 05:49:43;;;;;;;3.10;1.23;;;13.30;57.20;;;;;;4842732;29;20597;-60
2022/04/07 05:52:14;;;;;;;2.67;1.40;;;13.30;56.10;;;;;;4852309;29;20959;-60
2022/04/07 05:54:45;;;;;;;1.73;1.17;;;13.40;56.40;;;;;;4850011;29;20459;-61
2022/04/07 05:57:15;;;;;;;2.00;1.23;;;13.30;55.90;;;;;;4840025;29;20466;-61
2022/04/07 05:59:48;;;;;;;2.50;1.20;;;13.30;56.10;;;;;;4843137;29;20576;-61
2022/04/07 06:02:19;;;;;;;1.23;1.03;;;13.30;56.60;;;;;;4846918;29;20463;-60
2022/04/07 06:04:50;;;;;;;2.43;1.27;;;13.20;56.90;;;;;;4842180;29;20466;-60
2022/04/07 06:07:20;;;;;;;2.80;1.00;;;13.20;55.90;;;;;;4846548;29;20479;-60
2022/04/07 06:09:51;;;;;;;3.40;1.10;;;13.20;55.50;;;;;;4842709;29;20469;-60
2022/04/07 06:12:22;;;;;;;1.60;1.20;;;13.20;54.90;;;;;;4845557;29;20457;-60
2022/04/07 06:14:54;;;;;;;1.87;1.30;;;13.20;54.40;;;;;;4849042;29;20489;-60
2022/04/07 06:17:34;;;;;;;1.13;0.87;;;13.20;54.50;;;;;;4834704;29;20464;-60
2022/04/07 06:20:06;;;;;;;1.37;1.27;;;13.20;54.80;;;;;;4847554;29;20510;-61
2022/04/07 06:22:37;;;;;;;2.13;1.00;;;13.20;55.70;;;;;;4849005;29;20477;-60
2022/04/07 06:25:08;;;;;;;2.00;1.10;;;13.20;54.60;;;;;;4844701;29;20476;-61
2022/04/07 06:27:40;;;;;;;3.23;1.40;;;13.10;53.70;;;;;;4834598;29;20452;-60
2022/04/07 06:30:14;;;;;;;2.60;1.43;;;13.10;54.80;;;;;;4844293;29;20466;-61
2022/04/07 06:32:46;;;;;;;5.27;1.17;;;13.00;54.90;;;;;;4849390;29;20476;-61
2022/04/07 06:35:18;;;;;;;5.83;1.40;;;13.00;55.70;;;;;;4850709;29;20561;-58
2022/04/07 06:37:53;;;;;;;2.73;1.27;;;12.90;54.80;;;;;;4850594;29;20456;-61
2022/04/07 06:40:24;;;;;;;1.57;1.33;;;12.90;55.80;;;;;;4844540;29;20490;-61
2022/04/07 06:42:57;;;;;;;2.50;1.53;;;12.90;56.50;;;;;;4840051;29;20452;-60
2022/04/07 06:45:31;;;;;;;1.43;1.20;;;12.90;54.70;;;;;;4841272;29;20458;-61
2022/04/07 06:48:02;;;;;;;0.83;0.83;;;12.90;54.30;;;;;;4843119;29;20994;-60
2022/04/07 06:50:33;;;;;;;3.00;1.40;;;12.90;54.50;;;;;;4846475;29;20826;-60
2022/04/07 06:53:04;;;;;;;4.00;1.13;;;12.80;55.20;;;;;;4840727;29;20451;-61
2022/04/07 06:55:35;;;;;;;1.57;1.27;;;12.70;54.50;;;;;;4847747;29;20447;-61
2022/04/07 06:58:08;;;;;;;2.10;1.00;;;12.70;56.20;;;;;;4841956;29;20463;-60
2022/04/07 07:00:45;;;;;;;1.57;1.03;;;12.70;55.70;;;;;;4843722;29;20500;-60
2022/04/07 07:03:17;;;;;;;1.90;1.30;;;12.70;55.90;;;;;;4848955;29;20534;-61
2022/04/07 07:05:48;;;;;;;3.60;1.20;;;12.70;56.30;;;;;;4843317;29;20463;-61
2022/04/07 07:08:20;;;;;;;4.20;1.50;;;12.70;55.60;;;;;;4840088;29;20944;-60
2022/04/07 07:10:52;;;;;;;2.20;1.20;;;12.60;55.80;;;;;;4837755;29;20534;-61
2022/04/07 07:13:24;;;;;;;2.20;1.50;;;12.60;55.50;;;;;;4849401;29;20465;-61
2022/04/07 07:15:58;;;;;;;2.13;1.00;;;12.50;56.50;;;;;;4838912;29;20498;-60
2022/04/07 07:18:28;;;;;;;1.93;1.43;;;12.40;57.10;;;;;;4845404;29;20546;-60
2022/04/07 07:20:59;;;;;;;1.50;1.40;;;12.40;56.40;;;;;;4847432;29;20498;-60
2022/04/07 07:23:30;;;;;;;1.27;1.03;;;12.40;56.90;;;;;;4847842;29;20454;-60
2022/04/07 07:26:01;;;;;;;1.33;1.17;;;12.30;57.20;;;;;;4853493;29;20452;-61
2022/04/07 07:28:32;;;;;;;2.20;1.17;;;12.20;59.20;;;;;;4853072;29;20469;-60
2022/04/07 07:31:05;;;;;;;1.53;1.10;;;12.20;59.20;;;;;;4842121;29;20469;-61
2022/04/07 07:33:35;;;;;;;2.27;1.50;;;12.00;60.20;;;;;;4842798;29;21039;-61
2022/04/07 07:36:06;;;;;;;1.67;1.40;;;12.00;58.30;;;;;;4842271;29;20466;-60
2022/04/07 07:38:37;;;;;;;3.00;1.20;;;12.00;58.70;;;;;;4850417;29;20920;-60
2022/04/07 07:41:08;;;;;;;1.20;1.10;;;12.10;58.80;;;;;;4847836;29;20509;-61
2022/04/07 07:43:39;;;;;;;1.90;1.47;;;12.00;60.20;;;;;;4837935;29;20463;-60
2022/04/07 07:46:11;;;;;;;4.27;1.70;;;12.10;58.50;;;;;;4840746;29;20454;-60
2022/04/07 07:48:42;;;;;;;2.37;1.27;;;12.10;59.50;;;;;;4848010;29;20548;-60
2022/04/07 07:51:13;;;;;;;2.10;1.43;;;12.10;57.70;;;;;;4846924;29;20454;-60
2022/04/07 07:53:45;;;;;;;1.80;1.63;;;12.10;58.70;;;;;;4843081;29;20474;-60
2022/04/07 07:56:17;;;;;;;2.70;1.27;;;12.10;58.50;;;;;;4839327;29;20834;-61
2022/04/07 07:58:47;;;;;;;1.17;1.10;;;12.10;58.30;;;;;;4850679;29;20454;-60
2022/04/07 08:01:20;;;;;;;1.83;1.00;;;12.00;60.30;;;;;;4844989;29;20502;-60
2022/04/07 08:03:51;;;;;;;2.27;1.23;;;11.80;59.70;;;;;;4843361;29;20475;-60
2022/04/07 08:06:23;;;;;;;2.67;1.53;;;11.90;59.40;;;;;;4848247;29;20466;-61
2022/04/07 08:08:53;;;;;;;2.80;1.97;;;11.90;57.90;;;;;;4841531;29;20455;-61
2022/04/07 08:11:24;;;;;;;2.53;1.30;;;11.80;59.40;;;;;;4848072;29;20458;-61
2022/04/07 08:13:55;;;;;;;2.13;1.20;;;11.80;60.20;;;;;;4840164;29;20467;-60
2022/04/07 08:16:29;;;;;;;2.60;1.50;;;11.80;58.80;;;;;;4837932;29;20465;-59
2022/04/07 08:19:00;;;;;;;2.27;1.30;;;11.80;59.70;;;;;;4847775;29;20457;-59
2022/04/07 08:21:31;;;;;;;2.13;1.30;;;11.70;58.10;;;;;;4841861;29;20601;-59
2022/04/07 08:24:01;;;;;;;5.40;1.57;;;11.80;58.30;;;;;;4843351;29;20743;-59
2022/04/07 08:26:32;;;;;;;2.73;1.10;;;11.90;59.80;;;;;;4850649;29;20470;-59
2022/04/07 08:29:03;;;;;;;2.10;1.20;;;11.80;59.30;;;;;;4847841;29;20459;-59
2022/04/07 08:31:38;;;;;;;2.17;1.30;;;11.70;59.40;;;;;;4841632;29;20466;-59
2022/04/07 08:34:11;;;;;;;1.70;1.00;;;11.70;59.60;;;;;;4849955;29;20510;-59
2022/04/07 08:36:42;;;;;;;4.50;1.20;;;11.70;58.30;;;;;;4848649;29;20501;-58
2022/04/07 08:39:20;;;;;;;1.97;1.30;;;11.70;58.60;;;;;;4851666;29;20944;-59
2022/04/07 08:41:53;;;;;;;2.80;1.40;;;11.70;58.90;;;;;;4836858;29;20578;-58
2022/04/07 08:44:31;;;;;;;1.73;1.03;;;11.70;59.60;;;;;;4847872;29;20466;-60
2022/04/07 08:47:04;;;;;;;1.90;1.00;;;11.60;59.90;;;;;;4850084;29;20550;-58
2022/04/07 08:49:39;;;;;;;2.10;1.10;;;11.50;60.40;;;;;;4852448;29;20466;-61
2022/04/07 08:52:10;;;;;;;4.63;1.13;;;11.50;58.90;;;;;;4841822;29;20486;-58
2022/04/07 08:54:45;;;;;;;1.80;1.17;;;11.60;59.60;;;;;;4849418;29;20462;-61
2022/04/07 08:57:18;;;;;;;1.67;1.10;;;11.60;61.30;;;;;;4851661;29;20462;-59
2022/04/07 08:59:59;;;;;;;2.07;1.20;;;11.50;60.60;;;;;;4846863;29;20547;-59
2022/04/07 09:02:31;;;;;;;2.70;1.13;;;11.50;58.60;;;;;;4846174;29;20504;-58
2022/04/07 09:05:02;;;;;;;3.87;1.20;;;11.50;60.50;;;;;;4841262;29;20462;-59
2022/04/07 09:07:35;;;;;;;2.53;1.23;;;11.50;60.10;;;;;;4840965;29;20490;-58
2022/04/07 09:10:14;;;;;;;3.80;1.13;;;11.40;59.70;;;;;;4850890;29;20588;-59
2022/04/07 09:12:47;;;;;;;1.50;1.13;;;11.50;59.30;;;;;;4850327;29;20470;-59
2022/04/07 09:15:18;;;;;;;1.10;0.80;;;11.50;60.00;;;;;;4852363;29;20971;-59
2022/04/07 09:17:54;;;;;;;2.10;1.10;;;11.50;60.30;;;;;;4850442;29;20462;-58
2022/04/07 09:20:30;;;;;;;2.87;1.37;;;11.40;59.50;;;;;;4845553;29;20469;-60
2022/04/07 09:23:02;;;;;;;3.23;1.33;;;11.50;59.60;;;;;;4848456;29;20495;-58
2022/04/07 09:25:32;;;;;;;2.27;0.90;;;11.40;61.40;;;;;;4851125;29;20458;-58
2022/04/07 09:28:03;;;;;;;2.10;1.20;;;11.40;59.90;;;;;;4841578;29;20493;-61
2022/04/07 09:30:41;;;;;;;2.93;1.00;;;11.50;58.90;;;;;;4843176;29;20799;-60
2022/04/07 09:33:23;;;;;;;1.50;0.93;;;11.50;59.70;;;;;;4851462;29;20466;-58
2022/04/07 09:36:02;;;;;;;3.53;1.13;;;11.50;60.70;;;;;;4837691;29;20469;-58
2022/04/07 09:38:33;;;;;;;3.10;1.30;;;11.50;59.40;;;;;;4844145;29;20486;-61
2022/04/07 09:41:08;;;;;;;1.10;1.00;;;11.50;58.60;;;;;;4849295;29;20851;-58
2022/04/07 09:43:46;;;;;;;1.20;1.10;;;11.60;58.90;;;;;;4842047;29;20494;-59
2022/04/07 09:46:18;;;;;;;3.43;1.30;;;11.60;58.90;;;;;;4842926;29;20475;-58
2022/04/07 09:49:04;;;;;;;1.20;1.10;;;11.50;59.30;;;;;;4836859;29;20446;-58
2022/04/07 09:51:45;;;;;;;1.80;1.50;;;11.50;58.90;;;;;;4836463;29;20483;-58
2022/04/07 09:54:18;;;;;;;2.20;1.30;;;11.40;58.90;;;;;;4840301;29;20477;-58
2022/04/07 09:56:50;;;;;;;1.53;1.13;;;11.30;60.60;;;;;;4838841;29;21022;-59
2022/04/07 09:59:23;;;;;;;1.73;1.00;;;11.30;61.30;;;;;;4837934;29;20481;-59
2022/04/07 10:01:55;;;;;;;2.33;1.57;;;11.20;63.30;;;;;;4844050;29;20955;-59
2022/04/07 10:04:28;;;;;;;1.67;1.20;;;11.20;59.40;;;;;;4840936;29;20503;-59
2022/04/07 10:07:00;;;;;;;1.70;0.90;;;11.20;60.70;;;;;;4844063;29;20486;-60
2022/04/07 10:09:33;;;;;;;3.07;1.37;;;11.20;61.50;;;;;;4838574;29;20467;-59
2022/04/07 10:12:04;;;;;;;4.10;1.40;;;11.10;61.40;;;;;;4837120;29;20514;-59
2022/04/07 10:14:35;;;;;;;3.03;1.07;;;11.10;62.40;;;;;;4838193;29;20455;-59
2022/04/07 10:17:07;;;;;;;1.10;1.10;;;11.10;62.20;;;;;;4843992;29;20474;-59
2022/04/07 10:19:47;;;;;;;2.90;1.30;;;11.00;62.80;;;;;;4835274;29;20538;-59
2022/04/07 10:22:52;;;;;;;1.03;0.80;;;11.00;61.50;;;;;;4841010;29;20494;-59
2022/04/07 10:25:26;;;;;;;2.27;1.07;;;11.00;61.80;;;;;;4840691;29;20530;-59
2022/04/07 10:27:59;;;;;;;2.00;1.10;;;11.20;59.40;;;;;;4835916;29;20494;-59
2022/04/07 10:30:49;;;;;;;2.40;1.17;;;11.20;60.30;;;;;;4851082;29;20561;-59
2022/04/07 10:33:34;;;;;;;2.20;1.00;;;11.20;62.70;;;;;;4847965;29;20511;-59
2022/04/07 10:36:15;;;;;;;2.20;1.10;;;11.10;62.60;;;;;;4846245;29;20454;-59
2022/04/07 10:38:47;;;;;;;2.93;1.20;;;11.10;60.10;;;;;;4849317;29;20468;-59
2022/04/07 10:41:49;;;;;;;2.93;1.07;;;11.10;61.00;;;;;;4845489;29;20606;-59
2022/04/07 10:44:21;;;;;;;1.33;1.03;;;11.20;60.40;;;;;;4844782;29;20831;-59
2022/04/07 10:47:03;;;;;;;1.77;0.97;;;11.10;62.60;;;;;;4849523;29;20455;-59
2022/04/07 10:49:34;;;;;;;2.90;1.07;;;11.20;61.10;;;;;;4843333;29;20497;-59
2022/04/07 10:52:07;;;;;;;3.00;1.03;;;11.20;60.60;;;;;;4844690;29;20454;-59
2022/04/07 10:55:13;;;;;;;1.80;0.93;;;11.20;60.60;;;;;;4839183;29;20852;-60
2022/04/07 10:58:11;;;;;;;1.60;1.20;;;11.10;62.00;;;;;;4842592;29;20489;-59
2022/04/07 11:00:42;;;;;;;9.93;2.33;;;11.00;62.70;;;;;;4847409;29;20546;-59
2022/04/07 11:03:20;;;;;;;1.40;0.93;;;11.00;61.90;;;;;;4836848;29;20505;-59
2022/04/07 11:06:07;;;;;;;2.10;1.23;;;11.10;60.30;;;;;;4838822;29;20493;-60
2022/04/07 11:08:40;;;;;;;5.73;1.40;;;11.10;61.70;;;;;;4847027;29;20472;-59
2022/04/07 11:11:35;;;;;;;1.83;1.10;;;11.20;58.90;;;;;;4846467;29;20792;-59
2022/04/07 11:14:10;;;;;;;1.20;1.10;;;11.20;61.10;;;;;;4836697;29;20877;-59
2022/04/07 11:16:50;;;;;;;4.63;1.20;;;11.10;62.90;;;;;;4843362;29;20563;-59
2022/04/07 11:19:33;;;;;;;4.13;2.33;;;11.00;62.90;;;;;;4848492;29;21003;-59
2022/04/07 11:22:19;;;;;;;1.70;0.97;;;10.90;63.20;;;;;;4848072;29;20462;-59
2022/04/07 11:25:05;;;;;;;2.13;1.03;;;10.90;63.30;;;;;;4850722;29;20484;-60
2022/04/07 11:27:42;;;;;;;1.70;1.10;;;10.80;62.50;;;;;;4836275;29;20834;-59
2022/04/07 11:30:14;;;;;;;2.23;1.10;;;10.70;65.00;;;;;;4849897;29;20489;-59
2022/04/07 11:33:17;;;;;;;1.70;1.03;;;10.70;63.10;;;;;;4842192;29;20451;-58
2022/04/07 11:36:14;;;;;;;1.23;1.10;;;10.70;61.80;;;;;;4845551;29;20463;-59
2022/04/07 11:38:47;;;;;;;2.47;1.17;;;10.80;61.10;;;;;;4845088;29;20461;-59
2022/04/07 11:41:20;;;;;;;1.77;1.30;;;10.90;62.50;;;;;;4837220;29;20555;-58
2022/04/07 11:43:52;;;;;;;1.10;0.97;;;11.00;60.10;;;;;;4842513;29;20499;-59
2022/04/07 11:46:28;;;;;;;0.80;0.80;;;10.90;62.00;;;;;;4836940;29;20470;-58
2022/04/07 11:49:02;;;;;;;2.87;1.03;;;10.90;62.40;;;;;;4847431;29;20462;-59
2022/04/07 11:51:36;;;;;;;1.10;0.80;;;10.80;61.50;;;;;;4837493;29;20598;-58
2022/04/07 11:54:07;;;;;;;2.60;1.70;;;10.90;60.40;;;;;;4833091;29;20824;-59
2022/04/07 11:56:44;;;;;;;1.90;1.13;;;10.90;61.80;;;;;;4842298;29;20459;-59
2022/04/07 11:59:16;;;;;;;5.53;1.53;;;10.90;60.00;;;;;;4844816;29;20535;-59
2022/04/07 12:02:12;;;;;;;3.40;0.93;;;11.00;60.20;;;;;;4838414;29;20475;-59
2022/04/07 12:04:43;;;;;;;7.77;1.27;;;11.10;60.00;;;;;;4847168;29;20476;-59
2022/04/07 12:07:23;;;;;;;1.93;1.83;;;11.00;60.00;;;;;;4845596;29;20494;-60
2022/04/07 12:09:57;;;;;;;2.10;1.03;;;10.90;61.40;;;;;;4844966;29;20977;-61
2022/04/07 12:12:30;;;;;;;1.50;1.10;;;11.00;59.10;;;;;;4851693;29;20510;-60
2022/04/07 12:15:02;;;;;;;3.37;1.53;;;11.00;60.70;;;;;;4850708;29;20446;-60
2022/04/07 12:17:36;;;;;;;2.43;1.00;;;11.00;60.90;;;;;;4839394;29;20473;-60
2022/04/07 12:20:08;;;;;;;1.00;0.90;;;10.90;60.60;;;;;;4847890;29;20523;-60
2022/04/07 12:22:39;;;;;;;2.47;1.07;;;10.90;60.30;;;;;;4844530;29;20500;-59
2022/04/07 12:25:11;;;;;;;1.40;1.00;;;11.10;60.50;;;;;;4852778;29;20466;-60
2022/04/07 12:27:45;;;;;;;1.77;1.13;;;11.10;59.60;;;;;;4851666;29;20785;-60
2022/04/07 12:30:17;;;;;;;4.03;1.67;;;11.20;59.50;;;;;;4848866;29;20466;-60
2022/04/07 12:32:54;;;;;;;3.40;1.17;;;11.10;59.60;;;;;;4843748;29;20459;-59
2022/04/07 12:35:45;;;;;;;1.33;1.23;;;11.10;60.60;;;;;;4844248;29;20462;-60
2022/04/07 12:38:19;;;;;;;2.33;1.10;;;11.10;59.80;;;;;;4839750;29;20529;-60
2022/04/07 12:40:50;;;;;;;2.60;1.50;;;11.10;61.70;;;;;;4837727;29;20454;-60
2022/04/07 12:43:44;;;;;;;3.27;1.00;;;11.00;61.30;;;;;;4841932;29;20995;-60
2022/04/07 12:46:15;;;;;;;3.23;0.97;;;11.00;60.80;;;;;;4835451;29;20466;-60
2022/04/07 12:49:24;;;;;;;2.20;0.80;;;11.00;60.70;;;;;;4842037;29;20496;-61
2022/04/07 12:52:06;;;;;;;1.20;1.00;;;11.00;60.40;;;;;;4783758;30;20449;-60
2022/04/07 12:54:38;;;;;;;2.93;0.80;;;11.00;62.10;;;;;;4796709;30;20465;-60
2022/04/07 12:57:13;;;;;;;1.43;1.00;;;10.90;62.10;;;;;;4795115;30;20476;-60
2022/04/07 12:59:58;;;;;;;0.83;0.83;;;10.90;62.20;;;;;;4795856;30;20516;-60
2022/04/07 13:02:44;;;;;;;1.10;1.00;;;10.90;62.20;;;;;;4785931;30;20472;-60
2022/04/07 13:05:23;;;;;;;1.50;1.40;;;11.10;59.50;;;;;;4790292;30;20518;-60
2022/04/07 13:08:08;;;;;;;2.00;1.20;;;11.10;61.80;;;;;;4777423;30;20504;-59
2022/04/07 13:10:43;;;;;;;3.00;1.40;;;11.10;61.50;;;;;;4784960;30;20502;-59
2022/04/07 13:13:29;;;;;;;2.30;1.33;;;11.10;61.80;;;;;;4787873;30;20453;-59
2022/04/07 13:16:01;;;;;;;4.30;0.90;;;10.90;61.60;;;;;;4787618;30;20453;-58
2022/04/07 13:18:32;;;;;;;1.23;0.87;;;10.90;63.10;;;;;;4795752;30;20453;-58
2022/04/07 13:21:03;;;;;;;3.03;1.43;;;10.80;60.80;;;;;;4794893;29;20846;-58